createdAt,value
2022-07-29T00:01:04.842Z,3.40
2022-07-29T00:04:06.914Z,3.25
2022-07-29T00:07:09.206Z,3.53
2022-07-29T00:10:12.294Z,4.00
2022-07-29T00:13:14.322Z,4.50
2022-07-29T00:16:16.377Z,5.10
2022-07-29T00:19:18.452Z,5.75
2022-07-29T00:22:20.966Z,5.70
2022-07-29T00:25:22.992Z,4.93
2022-07-29T00:28:24.994Z,6.10
2022-07-29T00:31:27.259Z,5.72
2022-07-29T00:34:47.784Z,5.63
2022-07-29T00:37:49.816Z,5.33
2022-07-29T00:40:51.879Z,5.32
2022-07-29T00:43:53.907Z,6.07
2022-07-29T00:46:55.954Z,5.65
2022-07-29T00:49:58.489Z,5.75
2022-07-29T00:53:01.042Z,6.37
2022-07-29T00:56:03.182Z,5.95
2022-07-29T00:59:05.197Z,5.68
2022-07-29T01:02:07.275Z,6.28
2022-07-29T01:05:09.548Z,5.97
2022-07-29T01:08:12.664Z,5.50
2022-07-29T01:11:15.518Z,6.63
2022-07-29T01:14:18.168Z,6.32
2022-07-29T01:17:53.369Z,6.43
2022-07-29T01:21:07.620Z,6.13
2022-07-29T01:24:27.105Z,5.93
2022-07-29T01:27:34.883Z,6.10
2022-07-29T01:30:38.037Z,6.45
2022-07-29T01:33:51.562Z,6.47
2022-07-29T01:37:03.010Z,6.75
2022-07-29T01:40:05.852Z,6.50
2022-07-29T01:43:11.269Z,6.28
2022-07-29T01:46:15.856Z,6.35
2022-07-29T01:49:19.779Z,5.65
2022-07-29T01:52:27.775Z,5.75
2022-07-29T01:55:32.215Z,5.33
2022-07-29T01:58:36.717Z,5.70
2022-07-29T02:01:40.234Z,5.65
2022-07-29T02:04:43.956Z,5.50
2022-07-29T02:07:47.447Z,5.78
2022-07-29T02:10:50.516Z,5.33
2022-07-29T02:13:55.783Z,6.05
2022-07-29T02:16:59.344Z,5.63
2022-07-29T02:20:02.580Z,5.47
2022-07-29T02:23:05.429Z,4.75
2022-07-29T02:26:08.130Z,4.93
2022-07-29T02:29:10.923Z,5.53
2022-07-29T02:32:14.902Z,5.28
2022-07-29T02:35:17.746Z,5.38
2022-07-29T02:38:50.017Z,5.75
2022-07-29T02:41:53.219Z,4.87
2022-07-29T02:44:55.565Z,5.88
2022-07-29T02:47:59.153Z,5.25
2022-07-29T02:51:13.124Z,6.20
2022-07-29T02:54:39.392Z,5.45
2022-07-29T02:58:03.496Z,5.33
2022-07-29T03:01:09.892Z,5.63
2022-07-29T03:04:13.763Z,6.18
2022-07-29T03:07:16.634Z,5.20
2022-07-29T03:10:19.048Z,5.30
2022-07-29T03:13:21.389Z,5.60
2022-07-29T03:16:24.918Z,6.18
2022-07-29T03:19:27.212Z,6.13
2022-07-29T03:22:29.241Z,6.57
2022-07-29T03:25:31.775Z,7.13
2022-07-29T03:28:33.781Z,6.87
2022-07-29T03:31:36.467Z,6.45
2022-07-29T03:34:39.584Z,6.80
2022-07-29T03:37:41.574Z,7.10
2022-07-29T03:40:52.243Z,7.95
2022-07-29T03:43:54.615Z,6.63
2022-07-29T03:46:57.453Z,7.07
2022-07-29T03:50:06.024Z,7.78
2022-07-29T03:53:13.013Z,6.60
2022-07-29T03:56:17.355Z,6.72
2022-07-29T03:59:20.841Z,6.17
2022-07-29T04:02:28.685Z,6.90
2022-07-29T04:05:32.562Z,7.82
2022-07-29T04:08:35.241Z,9.68
2022-07-29T04:11:57.061Z,10.05
2022-07-29T04:15:01.059Z,8.33
2022-07-29T04:18:03.110Z,7.57
2022-07-29T04:21:05.219Z,6.18
2022-07-29T04:24:07.631Z,6.40
2022-07-29T04:27:09.717Z,6.90
2022-07-29T04:30:11.832Z,6.63
2022-07-29T04:33:13.873Z,7.28
2022-07-29T04:36:29.571Z,7.43
2022-07-29T04:39:32.053Z,7.78
2022-07-29T04:42:34.096Z,6.03
2022-07-29T04:45:46.092Z,6.73
2022-07-29T04:48:48.698Z,7.03
2022-07-29T04:51:50.726Z,6.97
2022-07-29T04:54:52.757Z,6.38
2022-07-29T04:57:54.830Z,7.00
2022-07-29T05:00:56.853Z,6.20
2022-07-29T05:04:00.750Z,6.35
2022-07-29T05:07:02.946Z,6.00
2022-07-29T05:10:05.243Z,6.53
2022-07-29T05:13:07.848Z,6.70
2022-07-29T05:16:10.093Z,6.90
2022-07-29T05:19:14.334Z,6.43
2022-07-29T05:22:16.841Z,6.88
2022-07-29T05:25:18.891Z,7.25
2022-07-29T05:28:20.922Z,7.22
2022-07-29T05:31:23.081Z,6.83
2022-07-29T05:34:26.120Z,7.00
2022-07-29T05:37:28.218Z,8.30
2022-07-29T05:40:30.236Z,6.80
2022-07-29T05:43:32.815Z,6.88
2022-07-29T05:46:34.999Z,6.90
2022-07-29T05:49:37.105Z,7.93
2022-07-29T05:52:39.959Z,7.25
2022-07-29T05:55:42.016Z,7.15
2022-07-29T05:58:44.340Z,7.57
2022-07-29T06:01:46.471Z,6.33
2022-07-29T06:04:49.710Z,7.15
2022-07-29T06:07:51.797Z,7.03
2022-07-29T06:10:53.816Z,6.85
2022-07-29T06:13:55.922Z,7.65
2022-07-29T06:16:57.908Z,7.20
2022-07-29T06:19:59.919Z,6.82
2022-07-29T06:23:01.969Z,7.05
2022-07-29T06:26:04.041Z,7.32
2022-07-29T06:29:06.455Z,6.63
2022-07-29T06:32:10.175Z,7.10
2022-07-29T06:35:39.510Z,7.03
2022-07-29T06:38:40.611Z,8.18
2022-07-29T06:41:47.462Z,6.32
2022-07-29T06:44:49.600Z,6.57
2022-07-29T06:47:51.555Z,6.67
2022-07-29T06:50:53.615Z,7.25
2022-07-29T06:54:02.201Z,6.95
2022-07-29T06:57:05.087Z,7.70
2022-07-29T07:00:07.663Z,7.82
2022-07-29T07:03:09.697Z,6.70
2022-07-29T07:06:14.970Z,6.78
2022-07-29T07:09:17.278Z,6.75
2022-07-29T07:12:19.369Z,6.63
2022-07-29T07:15:22.895Z,7.40
2022-07-29T07:18:41.528Z,7.47
2022-07-29T07:21:43.525Z,6.15
2022-07-29T07:24:45.565Z,6.90
2022-07-29T07:27:47.635Z,6.78
2022-07-29T07:30:49.705Z,6.72
2022-07-29T07:33:52.699Z,7.33
2022-07-29T07:36:54.764Z,7.82
2022-07-29T07:39:56.786Z,6.53
2022-07-29T07:42:58.905Z,6.68
2022-07-29T07:46:00.987Z,6.88
2022-07-29T07:49:03.088Z,6.43
2022-07-29T07:52:05.707Z,6.38
2022-07-29T07:55:09.064Z,6.78
2022-07-29T07:58:11.043Z,6.55
2022-07-29T08:01:13.225Z,6.03
2022-07-29T08:04:15.601Z,5.90
2022-07-29T08:07:17.903Z,7.10
2022-07-29T08:10:40.231Z,6.72
2022-07-29T08:13:42.360Z,6.78
2022-07-29T08:16:44.475Z,7.18
2022-07-29T08:19:47.084Z,6.60
2022-07-29T08:22:49.108Z,6.40
2022-07-29T08:25:51.190Z,5.97
2022-07-29T08:28:53.201Z,5.70
2022-07-29T08:31:55.555Z,6.05
2022-07-29T08:34:57.989Z,5.93
2022-07-29T08:38:00.052Z,5.93
2022-07-29T08:41:04.007Z,5.82
2022-07-29T08:44:06.029Z,5.55
2022-07-29T08:47:08.116Z,5.57
2022-07-29T08:50:10.566Z,5.93
2022-07-29T08:53:13.327Z,5.90
2022-07-29T08:56:17.791Z,5.78
2022-07-29T08:59:20.984Z,5.68
2022-07-29T09:02:23.803Z,5.53
2022-07-29T09:05:26.898Z,7.00
2022-07-29T09:08:29.321Z,6.43
2022-07-29T09:11:33.205Z,5.30
2022-07-29T09:14:35.358Z,5.40
2022-07-29T09:17:41.057Z,5.35
2022-07-29T09:21:11.220Z,5.60
2022-07-29T09:24:13.878Z,4.68
2022-07-29T09:27:18.704Z,4.53
2022-07-29T09:30:30.367Z,4.93
2022-07-29T09:33:40.374Z,4.63
2022-07-29T09:36:42.449Z,4.93
2022-07-29T09:39:47.640Z,5.20
2022-07-29T09:42:50.261Z,4.78
2022-07-29T09:45:52.440Z,4.63
2022-07-29T09:49:07.178Z,5.03
2022-07-29T09:52:12.249Z,4.80
2022-07-29T09:55:18.081Z,4.88
2022-07-29T09:58:21.380Z,4.63
2022-07-29T10:01:30.411Z,5.45
2022-07-29T10:04:40.040Z,4.57
2022-07-29T10:07:48.380Z,4.20
2022-07-29T10:11:09.312Z,4.50
2022-07-29T10:14:11.568Z,4.53
2022-07-29T10:17:13.656Z,3.88
2022-07-29T10:20:16.548Z,3.05
2022-07-29T10:23:18.723Z,4.83
2022-07-29T10:26:20.933Z,3.75
2022-07-29T10:29:23.169Z,4.35
2022-07-29T10:32:41.969Z,3.40
2022-07-29T10:35:47.167Z,4.38
2022-07-29T10:38:55.364Z,3.13
2022-07-29T10:42:14.855Z,3.85
2022-07-29T10:45:22.500Z,3.38
2022-07-29T10:48:24.967Z,3.72
2022-07-29T10:51:46.888Z,4.18
2022-07-29T10:54:51.153Z,4.50
2022-07-29T10:58:12.564Z,3.40
2022-07-29T11:01:37.761Z,5.32
2022-07-29T11:04:44.308Z,3.70
2022-07-29T11:08:04.808Z,4.13
2022-07-29T11:11:18.207Z,3.63
2022-07-29T11:14:40.428Z,3.28
2022-07-29T11:18:14.812Z,3.95
2022-07-29T11:21:55.018Z,3.60
2022-07-29T11:25:16.721Z,4.32
2022-07-29T11:28:23.012Z,4.03
2022-07-29T11:31:35.720Z,4.18
2022-07-29T11:34:41.391Z,4.07
2022-07-29T11:37:45.849Z,4.22
2022-07-29T11:41:12.659Z,5.07
2022-07-29T11:44:18.022Z,3.93
2022-07-29T11:47:23.510Z,4.10
2022-07-29T11:50:31.437Z,4.53
2022-07-29T11:53:35.051Z,4.22
2022-07-29T11:56:40.126Z,4.35
2022-07-29T11:59:43.653Z,3.80
2022-07-29T12:02:48.519Z,4.30
2022-07-29T12:05:51.850Z,4.40
2022-07-29T12:08:54.072Z,4.97
2022-07-29T12:12:04.896Z,4.00
2022-07-29T12:15:14.464Z,4.30
2022-07-29T12:18:24.376Z,3.97
2022-07-29T12:21:26.781Z,4.20
2022-07-29T12:24:43.564Z,3.53
2022-07-29T12:27:47.208Z,4.35
2022-07-29T12:30:51.759Z,3.97
2022-07-29T12:33:54.731Z,3.55
2022-07-29T12:36:57.608Z,4.05
2022-07-29T12:39:59.775Z,3.63
2022-07-29T12:43:12.217Z,4.25
2022-07-29T12:46:14.878Z,3.80
2022-07-29T12:49:24.114Z,4.00
2022-07-29T12:52:30.465Z,4.03
2022-07-29T12:55:42.696Z,4.35
2022-07-29T12:58:49.388Z,4.03
2022-07-29T13:01:53.714Z,3.60
2022-07-29T13:04:56.410Z,3.75
2022-07-29T13:08:10.414Z,4.03
2022-07-29T13:11:34.329Z,3.80
2022-07-29T13:14:41.677Z,3.90
2022-07-29T13:17:44.562Z,3.83
2022-07-29T13:20:50.171Z,4.40
2022-07-29T13:23:52.201Z,4.05
2022-07-29T13:26:54.223Z,3.80
2022-07-29T13:29:58.974Z,3.67
2022-07-29T13:33:01.000Z,3.63
2022-07-29T13:36:03.009Z,4.28
2022-07-29T13:39:05.772Z,4.00
2022-07-29T13:42:10.948Z,3.60
2022-07-29T13:45:13.251Z,4.20
2022-07-29T13:48:15.386Z,4.53
2022-07-29T13:51:17.474Z,4.45
2022-07-29T13:54:19.487Z,4.20
2022-07-29T13:57:21.504Z,4.65
2022-07-29T14:00:24.675Z,4.60
2022-07-29T14:03:26.869Z,3.57
2022-07-29T14:06:29.013Z,4.50
2022-07-29T14:09:41.281Z,4.97
2022-07-29T14:12:43.833Z,4.57
2022-07-29T14:15:45.820Z,4.25
2022-07-29T14:18:47.853Z,4.70
2022-07-29T14:21:49.877Z,4.78
2022-07-29T14:24:52.392Z,4.50
2022-07-29T14:27:55.209Z,4.35
2022-07-29T14:31:00.585Z,4.43
2022-07-29T14:34:03.082Z,3.73
2022-07-29T14:37:06.736Z,4.57
2022-07-29T14:40:10.003Z,4.78
2022-07-29T14:43:12.152Z,4.70
2022-07-29T14:46:14.321Z,4.35
2022-07-29T14:49:16.457Z,4.20
2022-07-29T14:52:18.538Z,4.22
2022-07-29T14:55:20.902Z,4.25
2022-07-29T14:58:23.725Z,4.00
2022-07-29T15:01:25.886Z,4.65
2022-07-29T15:04:27.981Z,4.90
2022-07-29T15:07:30.026Z,3.75
2022-07-29T15:10:32.158Z,3.55
2022-07-29T15:13:34.427Z,3.85
2022-07-29T15:16:36.966Z,4.10
2022-07-29T15:19:39.024Z,4.10
2022-07-29T15:22:46.898Z,3.88
2022-07-29T15:25:48.916Z,4.20
2022-07-29T15:28:50.994Z,4.80
2022-07-29T15:31:53.116Z,4.32
2022-07-29T15:34:55.149Z,4.30
2022-07-29T15:37:57.280Z,4.38
2022-07-29T15:40:59.418Z,4.43
2022-07-29T15:44:01.424Z,3.83
2022-07-29T15:47:03.763Z,4.60
2022-07-29T15:50:07.420Z,3.77
2022-07-29T15:53:09.461Z,4.40
2022-07-29T15:56:11.504Z,5.25
2022-07-29T15:59:22.416Z,4.80
2022-07-29T16:02:24.747Z,4.35
2022-07-29T16:05:29.604Z,4.13
2022-07-29T16:08:31.711Z,4.80
2022-07-29T16:11:33.733Z,5.15
2022-07-29T16:14:35.919Z,5.13
2022-07-29T16:17:39.717Z,4.88
2022-07-29T16:20:42.093Z,4.07
2022-07-29T16:23:44.159Z,4.47
2022-07-29T16:26:46.212Z,4.68
2022-07-29T16:29:50.400Z,4.65
2022-07-29T16:32:52.416Z,5.10
2022-07-29T16:35:54.486Z,4.73
2022-07-29T16:38:56.573Z,4.55
2022-07-29T16:42:01.003Z,4.93
2022-07-29T16:45:05.016Z,4.78
2022-07-29T16:48:07.244Z,5.53
2022-07-29T16:51:09.282Z,4.67
2022-07-29T16:54:11.298Z,4.85
2022-07-29T16:57:13.363Z,5.15
2022-07-29T17:00:16.760Z,4.40
2022-07-29T17:03:19.502Z,4.68
2022-07-29T17:06:21.567Z,5.00
2022-07-29T17:09:25.036Z,4.70
2022-07-29T17:12:27.658Z,4.13
2022-07-29T17:15:29.761Z,4.50
2022-07-29T17:18:31.808Z,5.10
2022-07-29T17:21:33.831Z,4.60
2022-07-29T17:24:35.895Z,4.43
2022-07-29T17:27:37.892Z,4.80
2022-07-29T17:30:39.953Z,4.80
2022-07-29T17:33:41.958Z,5.03
2022-07-29T17:36:43.978Z,4.60
2022-07-29T17:39:46.118Z,4.68
2022-07-29T17:42:48.211Z,4.93
2022-07-29T17:45:50.958Z,5.18
2022-07-29T17:48:54.573Z,6.00
2022-07-29T17:52:00.729Z,6.20
2022-07-29T17:55:03.223Z,5.63
2022-07-29T17:58:06.297Z,4.93
2022-07-29T18:01:08.483Z,5.03
2022-07-29T18:04:11.394Z,6.20
2022-07-29T18:07:13.490Z,4.73
2022-07-29T18:10:15.493Z,5.13
2022-07-29T18:13:17.934Z,5.18
2022-07-29T18:16:20.064Z,5.22
2022-07-29T18:19:22.454Z,5.80
2022-07-29T18:22:24.455Z,4.70
2022-07-29T18:25:26.987Z,4.75
2022-07-29T18:28:33.053Z,5.88
2022-07-29T18:31:35.448Z,4.57
2022-07-29T18:34:37.546Z,5.15
2022-07-29T18:38:01.284Z,5.80
2022-07-29T18:41:01.562Z,5.45
2022-07-29T18:44:03.603Z,5.85
2022-07-29T18:47:06.475Z,5.97
2022-07-29T18:50:09.141Z,6.15
2022-07-29T18:53:11.231Z,6.47
2022-07-29T18:56:13.352Z,7.32
2022-07-29T18:59:20.661Z,6.82
2022-07-29T19:02:22.957Z,6.35
2022-07-29T19:05:25.561Z,6.72
2022-07-29T19:08:27.546Z,7.47
2022-07-29T19:11:29.607Z,6.38
2022-07-29T19:14:31.611Z,6.55
2022-07-29T19:17:33.573Z,6.85
2022-07-29T19:20:36.008Z,6.60
2022-07-29T19:24:04.174Z,7.03
2022-07-29T19:27:00.340Z,7.35
2022-07-29T19:30:04.673Z,7.20
2022-07-29T19:33:07.359Z,7.53
2022-07-29T19:36:09.477Z,8.65
2022-07-29T19:39:11.665Z,7.43
2022-07-29T19:42:13.652Z,7.68
2022-07-29T19:45:15.671Z,7.70
2022-07-29T19:48:17.717Z,8.25
2022-07-29T19:51:19.782Z,8.82
2022-07-29T19:54:21.858Z,7.40
2022-07-29T19:57:24.240Z,8.57
2022-07-29T20:00:26.423Z,8.48
2022-07-29T20:03:28.773Z,8.07
2022-07-29T20:06:30.783Z,7.82
2022-07-29T20:09:32.842Z,7.53
2022-07-29T20:12:35.920Z,8.15
2022-07-29T20:15:38.020Z,7.82
2022-07-29T20:18:40.106Z,8.07
2022-07-29T20:21:42.063Z,8.55
2022-07-29T20:24:44.474Z,7.90
2022-07-29T20:27:46.620Z,7.65
2022-07-29T20:30:48.717Z,8.10
2022-07-29T20:33:51.238Z,8.57
2022-07-29T20:36:53.313Z,8.40
2022-07-29T20:39:55.328Z,7.70
2022-07-29T20:42:57.395Z,8.20
2022-07-29T20:45:59.522Z,8.35
2022-07-29T20:49:01.737Z,7.22
2022-07-29T20:52:04.289Z,7.93
2022-07-29T20:55:07.662Z,7.77
2022-07-29T20:58:09.698Z,8.27
2022-07-29T21:01:11.866Z,8.15
2022-07-29T21:04:13.910Z,8.48
2022-07-29T21:07:15.922Z,8.55
2022-07-29T21:10:18.449Z,8.03
2022-07-29T21:13:25.523Z,7.43
2022-07-29T21:16:28.817Z,7.90
2022-07-29T21:19:30.939Z,7.85
2022-07-29T21:22:32.977Z,8.40
2022-07-29T21:25:36.017Z,8.33
2022-07-29T21:28:40.858Z,8.30
2022-07-29T21:31:42.869Z,8.38
2022-07-29T21:34:44.967Z,7.78
2022-07-29T21:37:46.954Z,8.00
2022-07-29T21:40:50.073Z,8.40
2022-07-29T21:43:52.177Z,7.93
2022-07-29T21:46:55.722Z,8.45
2022-07-29T21:49:57.741Z,8.52
2022-07-29T21:52:59.792Z,9.40
2022-07-29T21:56:01.893Z,8.70
2022-07-29T21:59:04.013Z,8.70
2022-07-29T22:02:11.634Z,8.35
2022-07-29T22:05:14.011Z,8.20
2022-07-29T22:08:16.073Z,8.63
2022-07-29T22:11:18.096Z,8.87
2022-07-29T22:14:22.384Z,8.18
2022-07-29T22:17:24.507Z,8.80
2022-07-29T22:20:26.629Z,8.30
2022-07-29T22:23:28.669Z,9.05
2022-07-29T22:26:30.921Z,8.37
2022-07-29T22:29:33.059Z,8.65
2022-07-29T22:32:35.076Z,8.73
2022-07-29T22:35:37.179Z,8.27
2022-07-29T22:38:39.247Z,8.30
2022-07-29T22:41:41.267Z,9.00
2022-07-29T22:44:43.333Z,8.35
2022-07-29T22:47:47.872Z,9.50
2022-07-29T22:50:50.810Z,9.32
2022-07-29T22:53:52.948Z,8.57
2022-07-29T22:56:55.172Z,9.10
2022-07-29T22:59:57.274Z,9.15
2022-07-29T23:02:59.521Z,8.98
2022-07-29T23:06:01.532Z,8.82
2022-07-29T23:09:04.178Z,9.32
2022-07-29T23:12:06.328Z,9.00
2022-07-29T23:15:08.397Z,8.70
2022-07-29T23:18:10.479Z,9.23
2022-07-29T23:21:12.481Z,8.70
2022-07-29T23:24:14.461Z,8.40
2022-07-29T23:27:16.477Z,8.80
2022-07-29T23:30:18.488Z,8.88
2022-07-29T23:33:20.584Z,8.32
2022-07-29T23:36:22.628Z,9.35
2022-07-29T23:39:24.676Z,8.75
2022-07-29T23:42:26.701Z,9.30
2022-07-29T23:45:33.081Z,8.82
2022-07-29T23:48:47.336Z,8.52
2022-07-29T23:51:49.387Z,8.57
2022-07-29T23:54:51.404Z,9.10
2022-07-29T23:57:53.374Z,8.93
